createdAt,value
2023-04-03T00:00:28.481Z,57.17
2023-04-03T00:01:01.507Z,56.67
2023-04-03T00:01:34.035Z,56.38
2023-04-03T00:02:06.146Z,56.05
2023-04-03T00:02:39.260Z,57.05
2023-04-03T00:03:11.488Z,56.58
2023-04-03T00:03:45.006Z,56.30
2023-04-03T00:04:17.047Z,56.10
2023-04-03T00:04:49.110Z,56.65
2023-04-03T00:05:22.016Z,57.50
2023-04-03T00:05:54.048Z,56.35
2023-04-03T00:06:26.339Z,56.45
2023-04-03T00:06:59.305Z,56.40
2023-04-03T00:07:31.475Z,56.28
2023-04-03T00:08:03.839Z,56.70
2023-04-03T00:08:36.772Z,56.22
2023-04-03T00:09:10.162Z,56.25
2023-04-03T00:09:42.627Z,56.05
2023-04-03T00:10:16.512Z,56.28
2023-04-03T00:10:49.931Z,56.97
2023-04-03T00:11:22.668Z,57.92
2023-04-03T00:11:54.898Z,56.25
2023-04-03T00:12:27.986Z,56.60
2023-04-03T00:13:00.156Z,56.50
2023-04-03T00:13:33.355Z,56.63
2023-04-03T00:14:06.510Z,57.67
2023-04-03T00:14:38.558Z,57.33
2023-04-03T00:15:11.011Z,57.28
2023-04-03T00:15:47.034Z,56.83
2023-04-03T00:16:19.204Z,56.63
2023-04-03T00:16:51.320Z,57.15
2023-04-03T00:17:24.396Z,57.17
2023-04-03T00:17:59.106Z,57.50
2023-04-03T00:18:34.971Z,56.78
2023-04-03T00:19:07.078Z,56.90
2023-04-03T00:19:40.084Z,57.03
2023-04-03T00:20:12.244Z,56.33
2023-04-03T00:20:44.389Z,56.15
2023-04-03T00:21:25.151Z,56.97
2023-04-03T00:21:57.455Z,57.03
2023-04-03T00:22:29.737Z,56.88
2023-04-03T00:23:02.366Z,55.60
2023-04-03T00:23:35.685Z,57.55
2023-04-03T00:24:08.012Z,57.92
2023-04-03T00:24:40.037Z,56.83
2023-04-03T00:25:12.958Z,55.97
2023-04-03T00:25:46.433Z,56.63
2023-04-03T00:26:19.329Z,56.47
2023-04-03T00:26:51.397Z,56.38
2023-04-03T00:27:23.427Z,56.28
2023-04-03T00:27:55.698Z,56.70
2023-04-03T00:28:28.874Z,56.75
2023-04-03T00:29:00.805Z,56.30
2023-04-03T00:29:32.779Z,56.80
2023-04-03T00:30:06.178Z,57.00
2023-04-03T00:30:39.502Z,56.65
2023-04-03T00:31:11.646Z,56.88
2023-04-03T00:31:44.666Z,56.50
2023-04-03T00:32:16.673Z,56.70
2023-04-03T00:32:49.167Z,56.67
2023-04-03T00:33:22.917Z,55.78
2023-04-03T00:33:55.045Z,55.85
2023-04-03T00:34:27.072Z,56.45
2023-04-03T00:34:59.990Z,57.28
2023-04-03T00:35:32.337Z,56.40
2023-04-03T00:36:08.347Z,56.85
2023-04-03T00:36:41.493Z,56.22
2023-04-03T00:37:13.615Z,56.88
2023-04-03T00:37:45.967Z,56.08
2023-04-03T00:38:19.552Z,55.95
2023-04-03T00:38:51.777Z,56.00
2023-04-03T00:39:24.034Z,56.03
2023-04-03T00:39:57.229Z,56.55
2023-04-03T00:40:34.432Z,56.38
2023-04-03T00:41:09.516Z,57.10
2023-04-03T00:41:41.546Z,56.08
2023-04-03T00:42:13.666Z,56.63
2023-04-03T00:42:48.516Z,56.42
2023-04-03T00:43:24.225Z,56.83
2023-04-03T00:43:56.289Z,56.80
2023-04-03T00:45:02.589Z,56.50
2023-04-03T00:45:36.962Z,56.20
2023-04-03T00:46:10.175Z,56.25
2023-04-03T00:46:42.479Z,55.85
2023-04-03T00:47:17.618Z,57.88
2023-04-03T00:47:50.842Z,56.97
2023-04-03T00:48:25.005Z,56.47
2023-04-03T00:48:58.285Z,56.35
2023-04-03T00:49:30.510Z,56.20
2023-04-03T00:50:03.275Z,56.28
2023-04-03T00:50:39.366Z,56.30
2023-04-03T00:51:14.993Z,55.90
2023-04-03T00:51:48.457Z,56.28
2023-04-03T00:52:24.214Z,56.13
2023-04-03T00:52:56.976Z,56.67
2023-04-03T00:53:33.033Z,55.83
2023-04-03T00:54:07.204Z,56.05
2023-04-03T00:54:41.292Z,55.80
2023-04-03T00:55:15.631Z,55.92
2023-04-03T00:55:49.263Z,56.55
2023-04-03T00:56:27.096Z,56.70
2023-04-03T00:56:59.676Z,56.92
2023-04-03T00:57:32.578Z,56.47
2023-04-03T00:58:08.175Z,57.08
2023-04-03T00:58:44.799Z,55.90
2023-04-03T00:59:23.080Z,56.58
2023-04-03T01:00:00.076Z,55.95
2023-04-03T01:00:32.365Z,56.40
2023-04-03T01:01:09.871Z,56.22
2023-04-03T01:01:43.353Z,56.58
2023-04-03T01:02:15.688Z,55.95
2023-04-03T01:02:48.901Z,56.20
2023-04-03T01:03:21.529Z,56.13
2023-04-03T01:03:53.606Z,55.33
2023-04-03T01:04:29.959Z,56.47
2023-04-03T01:05:02.462Z,56.38
2023-04-03T01:05:35.584Z,56.47
2023-04-03T01:06:08.007Z,55.92
2023-04-03T01:06:43.081Z,56.47
2023-04-03T01:07:18.717Z,56.03
2023-04-03T01:07:52.333Z,56.55
2023-04-03T01:08:24.461Z,56.45
2023-04-03T01:08:57.899Z,56.33
2023-04-03T01:09:30.692Z,56.20
2023-04-03T01:10:05.800Z,56.20
2023-04-03T01:10:38.932Z,55.90
2023-04-03T01:11:11.229Z,56.35
2023-04-03T01:11:44.684Z,56.25
2023-04-03T01:12:19.224Z,55.95
2023-04-03T01:12:52.594Z,57.25
2023-04-03T01:13:27.463Z,56.83
2023-04-03T01:14:02.707Z,56.30
2023-04-03T01:14:34.718Z,57.15
2023-04-03T01:15:09.365Z,56.45
2023-04-03T01:15:45.413Z,56.10
2023-04-03T01:16:18.142Z,55.78
2023-04-03T01:16:55.957Z,56.13
2023-04-03T01:17:30.500Z,56.33
2023-04-03T01:18:02.710Z,56.15
2023-04-03T01:18:37.797Z,56.42
2023-04-03T01:19:16.975Z,56.00
2023-04-03T01:19:54.386Z,55.53
2023-04-03T01:21:09.076Z,55.53
2023-04-03T01:22:04.804Z,56.50
2023-04-03T01:22:44.095Z,56.20
2023-04-03T01:23:30.505Z,56.25
2023-04-03T01:24:17.001Z,55.90
2023-04-03T01:24:49.085Z,56.08
2023-04-03T01:25:21.101Z,56.30
2023-04-03T01:25:56.242Z,56.22
2023-04-03T01:26:29.354Z,56.50
2023-04-03T01:27:05.836Z,56.05
2023-04-03T01:27:37.844Z,56.35
2023-04-03T01:28:11.712Z,56.70
2023-04-03T01:28:44.759Z,56.67
2023-04-03T01:29:16.815Z,56.47
2023-04-03T01:29:49.106Z,56.65
2023-04-03T01:30:26.125Z,56.00
2023-04-03T01:31:04.926Z,57.03
2023-04-03T01:31:52.566Z,56.50
2023-04-03T01:32:25.814Z,55.97
2023-04-03T01:32:58.117Z,56.25
2023-04-03T01:33:30.671Z,55.55
2023-04-03T01:34:07.621Z,56.30
2023-04-03T01:34:40.695Z,56.38
2023-04-03T01:35:13.031Z,56.20
2023-04-03T01:35:45.027Z,55.92
2023-04-03T01:36:21.933Z,55.92
2023-04-03T01:36:54.677Z,56.50
2023-04-03T01:37:27.433Z,55.88
2023-04-03T01:38:00.350Z,56.92
2023-04-03T01:38:32.642Z,57.20
2023-04-03T01:39:04.751Z,56.63
2023-04-03T01:39:38.104Z,56.13
2023-04-03T01:40:10.811Z,56.00
2023-04-03T01:40:42.874Z,56.63
2023-04-03T01:41:16.929Z,55.97
2023-04-03T01:41:50.322Z,56.42
2023-04-03T01:42:42.075Z,55.85
2023-04-03T01:43:15.070Z,56.42
2023-04-03T01:43:47.068Z,55.85
2023-04-03T01:44:19.404Z,56.22
2023-04-03T01:44:52.353Z,56.05
2023-04-03T01:45:24.322Z,56.00
2023-04-03T01:45:56.766Z,56.03
2023-04-03T01:46:30.543Z,55.67
2023-04-03T01:47:07.206Z,55.92
2023-04-03T01:47:39.213Z,55.70
2023-04-03T01:48:12.911Z,56.60
2023-04-03T01:48:44.910Z,55.95
2023-04-03T01:49:16.910Z,56.38
2023-04-03T01:49:49.871Z,55.60
2023-04-03T01:50:21.822Z,56.33
2023-04-03T01:50:54.574Z,56.58
2023-04-03T01:51:27.753Z,56.55
2023-04-03T01:51:59.871Z,55.72
2023-04-03T01:52:31.961Z,56.38
2023-04-03T01:53:04.015Z,56.45
2023-04-03T01:53:36.942Z,57.15
2023-04-03T01:54:08.996Z,56.50
2023-04-03T01:54:41.902Z,56.80
2023-04-03T01:55:14.151Z,56.53
2023-04-03T01:55:46.152Z,55.75
2023-04-03T01:56:18.172Z,56.47
2023-04-03T01:56:52.888Z,56.83
2023-04-03T01:57:26.144Z,57.13
2023-04-03T01:57:58.158Z,56.92
2023-04-03T01:58:31.302Z,57.20
2023-04-03T01:59:03.278Z,58.17
2023-04-03T01:59:35.348Z,57.60
2023-04-03T02:00:10.333Z,56.58
2023-04-03T02:01:50.596Z,56.53
2023-04-03T02:02:23.959Z,57.15
2023-04-03T02:02:57.909Z,57.08
2023-04-03T02:03:32.888Z,56.35
2023-04-03T02:04:05.000Z,56.22
2023-04-03T02:04:37.030Z,55.42
2023-04-03T02:05:10.788Z,55.70
2023-04-03T02:05:42.790Z,55.75
2023-04-03T02:06:15.921Z,55.90
2023-04-03T02:06:49.041Z,55.55
2023-04-03T02:07:21.145Z,56.50
2023-04-03T02:07:53.136Z,55.42
2023-04-03T02:08:26.352Z,55.70
2023-04-03T02:08:58.372Z,56.63
2023-04-03T02:09:31.402Z,55.83
2023-04-03T02:10:04.041Z,55.90
2023-04-03T02:10:36.381Z,56.55
2023-04-03T02:11:09.456Z,55.95
2023-04-03T02:11:41.549Z,56.60
2023-04-03T02:12:13.543Z,55.95
2023-04-03T02:12:46.768Z,55.70
2023-04-03T02:13:19.247Z,56.60
2023-04-03T02:13:51.290Z,56.00
2023-04-03T02:14:24.643Z,57.45
2023-04-03T02:14:56.703Z,55.25
2023-04-03T02:15:28.650Z,55.88
2023-04-03T02:16:02.206Z,55.88
2023-04-03T02:16:34.241Z,55.70
2023-04-03T02:17:09.552Z,55.70
2023-04-03T02:17:44.066Z,56.35
2023-04-03T02:18:17.305Z,56.30
2023-04-03T02:18:49.305Z,56.17
2023-04-03T02:19:22.558Z,56.47
2023-04-03T02:19:54.661Z,56.40
2023-04-03T02:20:27.138Z,55.55
2023-04-03T02:20:59.110Z,55.90
2023-04-03T02:21:33.199Z,55.88
2023-04-03T02:22:05.871Z,55.75
2023-04-03T02:22:37.950Z,55.20
2023-04-03T02:23:11.271Z,55.97
2023-04-03T02:23:43.360Z,55.92
2023-04-03T02:24:15.753Z,55.85
2023-04-03T02:24:48.685Z,55.38
2023-04-03T02:25:21.357Z,55.55
2023-04-03T02:25:53.294Z,56.05
2023-04-03T02:26:26.765Z,55.30
2023-04-03T02:26:58.852Z,55.88
2023-04-03T02:27:31.047Z,56.63
2023-04-03T02:28:03.049Z,55.65
2023-04-03T02:28:37.536Z,56.42
2023-04-03T02:29:09.545Z,56.30
2023-04-03T02:29:41.522Z,56.30
2023-04-03T02:30:15.706Z,55.95
2023-04-03T02:30:47.858Z,56.55
2023-04-03T02:31:19.930Z,56.63
2023-04-03T02:31:52.670Z,55.92
2023-04-03T02:32:26.694Z,55.85
2023-04-03T02:33:00.402Z,56.30
2023-04-03T02:33:33.830Z,55.70
2023-04-03T02:34:06.604Z,56.17
2023-04-03T02:34:40.034Z,55.80
2023-04-03T02:35:14.038Z,55.72
2023-04-03T02:35:54.075Z,55.85
2023-04-03T02:36:28.140Z,55.03
2023-04-03T02:37:03.678Z,55.90
2023-04-03T02:37:35.843Z,55.45
2023-04-03T02:38:09.083Z,55.28
2023-04-03T02:38:41.398Z,55.42
2023-04-03T02:39:15.130Z,55.45
2023-04-03T02:39:47.756Z,54.72
2023-04-03T02:40:20.925Z,55.38
2023-04-03T02:40:53.045Z,55.85
2023-04-03T02:41:26.517Z,56.15
2023-04-03T02:42:00.196Z,56.30
2023-04-03T02:42:33.232Z,55.67
2023-04-03T02:43:05.714Z,56.10
2023-04-03T02:43:39.675Z,56.33
2023-04-03T02:44:12.467Z,55.75
2023-04-03T02:44:44.476Z,56.22
2023-04-03T02:45:17.534Z,55.22
2023-04-03T02:45:49.505Z,55.70
2023-04-03T02:46:21.536Z,55.75
2023-04-03T02:46:53.554Z,55.65
2023-04-03T02:47:26.505Z,55.17
2023-04-03T02:47:59.988Z,55.40
2023-04-03T02:48:32.272Z,55.72
2023-04-03T02:49:06.721Z,55.67
2023-04-03T02:49:39.080Z,56.40
2023-04-03T02:50:11.174Z,55.72
2023-04-03T02:50:44.187Z,55.25
2023-04-03T02:51:16.519Z,55.42
2023-04-03T02:51:48.652Z,55.67
2023-04-03T02:52:20.763Z,56.38
2023-04-03T02:52:54.968Z,55.65
2023-04-03T02:53:26.958Z,55.35
2023-04-03T02:53:59.175Z,56.03
2023-04-03T02:54:36.748Z,55.83
2023-04-03T02:55:14.935Z,55.67
2023-04-03T02:55:47.071Z,55.42
2023-04-03T02:56:21.190Z,55.72
2023-04-03T02:56:53.359Z,56.25
2023-04-03T02:57:25.597Z,56.10
2023-04-03T02:57:58.647Z,55.85
2023-04-03T02:58:30.737Z,56.58
2023-04-03T02:59:04.509Z,56.60
2023-04-03T02:59:41.432Z,56.28
2023-04-03T03:00:15.457Z,56.30
2023-04-03T03:00:47.460Z,55.83
2023-04-03T03:01:20.972Z,55.55
2023-04-03T03:01:53.578Z,55.97
2023-04-03T03:02:25.802Z,55.78
2023-04-03T03:02:58.906Z,55.42
2023-04-03T03:03:32.359Z,55.67
2023-04-03T03:04:04.351Z,56.88
2023-04-03T03:04:37.815Z,56.88
2023-04-03T03:05:10.051Z,56.75
2023-04-03T03:05:42.103Z,56.53
2023-04-03T03:06:17.354Z,57.58
2023-04-03T03:06:49.512Z,58.15
2023-04-03T03:07:22.509Z,58.40
2023-04-03T03:07:54.568Z,58.25
2023-04-03T03:08:26.508Z,58.85
2023-04-03T03:08:59.478Z,59.58
2023-04-03T03:09:31.481Z,58.83
2023-04-03T03:10:04.732Z,58.40
2023-04-03T03:10:38.170Z,58.45
2023-04-03T03:11:11.245Z,58.25
2023-04-03T03:11:43.498Z,59.00
2023-04-03T03:12:16.730Z,58.97
2023-04-03T03:12:48.777Z,60.03
2023-04-03T03:13:21.076Z,60.03
2023-04-03T03:13:54.230Z,58.42
2023-04-03T03:14:26.208Z,60.53
2023-04-03T03:14:58.211Z,58.38
2023-04-03T03:15:31.149Z,59.03
2023-04-03T03:16:03.632Z,58.47
2023-04-03T03:16:39.349Z,57.33
2023-04-03T03:17:11.467Z,56.97
2023-04-03T03:17:44.766Z,57.42
2023-04-03T03:18:17.850Z,57.20
2023-04-03T03:18:51.181Z,56.47
2023-04-03T03:19:24.385Z,55.97
2023-04-03T03:19:57.786Z,55.88
2023-04-03T03:20:33.207Z,55.50
2023-04-03T03:21:07.202Z,56.30
2023-04-03T03:21:45.163Z,56.63
2023-04-03T03:22:20.593Z,55.95
2023-04-03T03:22:53.158Z,55.90
2023-04-03T03:23:27.739Z,56.13
2023-04-03T03:24:02.187Z,57.05
2023-04-03T03:24:36.451Z,57.28
2023-04-03T03:25:09.685Z,57.92
2023-04-03T03:25:43.795Z,58.67
2023-04-03T03:26:16.010Z,59.40
2023-04-03T03:26:48.165Z,60.45
2023-04-03T03:27:21.692Z,59.55
2023-04-03T03:27:54.156Z,61.28
2023-04-03T03:28:26.822Z,61.00
2023-04-03T03:28:59.929Z,62.10
2023-04-03T03:29:32.353Z,63.03
2023-04-03T03:30:06.168Z,61.53
2023-04-03T03:30:39.691Z,63.08
2023-04-03T03:31:12.140Z,63.35
2023-04-03T03:31:45.627Z,62.65
2023-04-03T03:32:18.942Z,62.95
2023-04-03T03:32:51.073Z,65.28
2023-04-03T03:33:23.155Z,63.10
2023-04-03T03:33:57.465Z,65.72
2023-04-03T03:34:29.485Z,64.65
2023-04-03T03:35:02.014Z,64.70
2023-04-03T03:35:36.280Z,63.58
2023-04-03T03:36:08.774Z,67.88
2023-04-03T03:36:43.209Z,63.38
2023-04-03T03:37:15.333Z,65.00
2023-04-03T03:37:47.301Z,65.30
2023-04-03T03:38:20.759Z,63.15
2023-04-03T03:38:52.867Z,62.45
2023-04-03T03:39:25.892Z,62.08
2023-04-03T03:39:57.889Z,61.83
2023-04-03T03:40:29.911Z,60.22
2023-04-03T03:41:03.489Z,60.08
2023-04-03T03:41:37.867Z,59.33
2023-04-03T03:42:10.609Z,59.45
2023-04-03T03:42:43.612Z,60.25
2023-04-03T03:43:15.736Z,58.25
2023-04-03T03:43:48.736Z,57.65
2023-04-03T03:44:22.382Z,59.10
2023-04-03T03:44:54.450Z,58.85
2023-04-03T03:45:27.499Z,58.50
2023-04-03T03:45:59.501Z,59.33
2023-04-03T03:46:32.932Z,59.05
2023-04-03T03:47:07.112Z,58.53
2023-04-03T03:47:39.153Z,59.30
2023-04-03T03:48:11.392Z,58.17
2023-04-03T03:48:44.448Z,58.05
2023-04-03T03:49:18.115Z,58.63
2023-04-03T03:49:50.293Z,56.75
2023-04-03T03:50:23.247Z,57.20
2023-04-03T03:50:56.144Z,58.08
2023-04-03T03:51:31.973Z,58.50
2023-04-03T03:52:05.161Z,58.47
2023-04-03T03:52:37.182Z,58.47
2023-04-03T03:53:09.195Z,58.88
2023-04-03T03:53:42.257Z,59.85
2023-04-03T03:54:19.019Z,60.38
2023-04-03T03:54:51.475Z,58.78
2023-04-03T03:55:27.648Z,58.35
2023-04-03T03:56:01.128Z,59.03
2023-04-03T03:56:35.829Z,60.35
2023-04-03T03:57:08.891Z,60.40
2023-04-03T03:57:41.667Z,59.63
2023-04-03T03:58:13.860Z,60.30
2023-04-03T03:58:46.390Z,60.15
2023-04-03T03:59:20.061Z,60.00
2023-04-03T03:59:53.776Z,60.28
2023-04-03T04:00:26.293Z,62.00
2023-04-03T04:01:03.284Z,61.22
2023-04-03T04:01:36.138Z,62.42
2023-04-03T04:02:09.412Z,61.85
2023-04-03T04:02:41.474Z,62.13
2023-04-03T04:03:15.352Z,62.67
2023-04-03T04:03:49.738Z,61.67
2023-04-03T04:04:27.071Z,62.05
2023-04-03T04:04:59.030Z,63.67
2023-04-03T04:05:32.297Z,62.63
2023-04-03T04:06:06.495Z,62.05
2023-04-03T04:06:38.536Z,62.30
2023-04-03T04:07:14.681Z,63.72
2023-04-03T04:07:46.865Z,61.88
2023-04-03T04:08:19.054Z,62.88
2023-04-03T04:08:52.570Z,60.13
2023-04-03T04:09:24.592Z,62.15
2023-04-03T04:09:56.700Z,63.92
2023-04-03T04:10:29.777Z,65.10
2023-04-03T04:11:03.073Z,61.47
2023-04-03T04:11:35.620Z,62.05
2023-04-03T04:12:09.245Z,61.58
2023-04-03T04:12:41.654Z,64.13
2023-04-03T04:13:13.615Z,62.33
2023-04-03T04:13:47.244Z,62.17
2023-04-03T04:14:21.379Z,61.78
2023-04-03T04:14:53.564Z,62.45
2023-04-03T04:15:27.915Z,63.30
2023-04-03T04:16:01.133Z,64.07
2023-04-03T04:16:33.229Z,63.95
2023-04-03T04:17:11.771Z,64.28
2023-04-03T04:17:43.757Z,62.88
2023-04-03T04:18:18.806Z,62.92
2023-04-03T04:18:54.683Z,64.38
2023-04-03T04:19:28.423Z,62.42
2023-04-03T04:20:00.504Z,64.55
2023-04-03T04:20:33.574Z,61.50
2023-04-03T04:21:05.884Z,61.35
2023-04-03T04:21:38.130Z,59.67
2023-04-03T04:22:11.179Z,59.78
2023-04-03T04:22:43.163Z,59.22
2023-04-03T04:23:15.319Z,57.47
2023-04-03T04:23:48.393Z,58.15
2023-04-03T04:24:20.704Z,58.90
2023-04-03T04:24:57.210Z,57.95
2023-04-03T04:25:30.401Z,56.95
2023-04-03T04:26:02.482Z,55.42
2023-04-03T04:26:37.962Z,55.40
2023-04-03T04:27:11.417Z,56.75
2023-04-03T04:27:43.534Z,56.17
2023-04-03T04:28:16.762Z,56.20
2023-04-03T04:28:50.488Z,57.05
2023-04-03T04:29:24.229Z,58.47
2023-04-03T04:29:59.365Z,57.10
2023-04-03T04:30:32.315Z,56.20
2023-04-03T04:31:05.504Z,56.13
2023-04-03T04:31:37.814Z,56.53
2023-04-03T04:32:10.040Z,55.88
2023-04-03T04:32:43.084Z,57.00
2023-04-03T04:33:15.934Z,57.05
2023-04-03T04:33:48.384Z,56.72
2023-04-03T04:34:22.247Z,56.00
2023-04-03T04:34:55.992Z,55.50
2023-04-03T04:35:28.264Z,56.45
2023-04-03T04:36:02.032Z,56.80
2023-04-03T04:36:34.331Z,55.50
2023-04-03T04:37:06.548Z,55.30
2023-04-03T04:37:39.656Z,56.20
2023-04-03T04:38:11.815Z,55.33
2023-04-03T04:38:43.938Z,56.97
2023-04-03T04:39:17.061Z,56.53
2023-04-03T04:39:49.065Z,55.75
2023-04-03T04:40:21.780Z,56.42
2023-04-03T04:40:55.008Z,55.60
2023-04-03T04:41:27.595Z,55.60
2023-04-03T04:41:59.632Z,55.90
2023-04-03T04:42:34.044Z,55.80
2023-04-03T04:43:07.292Z,56.55
2023-04-03T04:43:39.803Z,56.08
2023-04-03T04:44:12.020Z,56.45
2023-04-03T04:44:45.347Z,55.97
2023-04-03T04:45:19.563Z,55.88
2023-04-03T04:46:02.952Z,56.78
2023-04-03T04:46:35.985Z,55.65
2023-04-03T04:47:08.240Z,56.78
2023-04-03T04:47:41.392Z,56.15
2023-04-03T04:48:13.417Z,56.08
2023-04-03T04:48:45.952Z,55.85
2023-04-03T04:49:19.981Z,56.97
2023-04-03T04:49:52.150Z,56.92
2023-04-03T04:50:26.531Z,56.78
2023-04-03T04:50:59.656Z,55.15
2023-04-03T04:51:41.141Z,55.97
2023-04-03T04:52:17.128Z,56.42
2023-04-03T04:52:50.118Z,56.55
2023-04-03T04:53:22.120Z,55.88
2023-04-03T04:53:56.042Z,56.03
2023-04-03T04:54:29.730Z,55.83
2023-04-03T04:55:02.865Z,55.40
2023-04-03T04:55:36.096Z,55.58
2023-04-03T04:56:08.480Z,55.35
2023-04-03T04:56:41.968Z,56.40
2023-04-03T04:57:15.479Z,55.70
2023-04-03T04:57:47.806Z,56.13
2023-04-03T04:58:21.179Z,55.80
2023-04-03T04:58:57.762Z,55.90
2023-04-03T04:59:31.154Z,55.95
2023-04-03T05:00:06.470Z,56.15
2023-04-03T05:00:38.464Z,56.38
2023-04-03T05:01:13.204Z,56.30
2023-04-03T05:01:57.360Z,55.83
2023-04-03T05:02:29.522Z,55.80
2023-04-03T05:03:01.721Z,56.33
2023-04-03T05:03:35.315Z,54.78
2023-04-03T05:04:07.545Z,54.92
2023-04-03T05:04:40.009Z,55.35
2023-04-03T05:05:19.940Z,55.35
2023-04-03T05:05:53.382Z,57.20
2023-04-03T05:06:26.402Z,55.88
2023-04-03T05:07:00.965Z,56.63
2023-04-03T05:07:36.675Z,55.50
2023-04-03T05:08:10.325Z,55.75
2023-04-03T05:08:44.480Z,55.85
2023-04-03T05:09:16.673Z,56.38
2023-04-03T05:09:51.160Z,56.45
2023-04-03T05:10:23.553Z,57.13
2023-04-03T05:10:56.463Z,55.88
2023-04-03T05:11:30.710Z,56.33
2023-04-03T05:12:03.964Z,55.92
2023-04-03T05:12:43.166Z,56.05
2023-04-03T05:13:15.832Z,56.58
2023-04-03T05:13:48.175Z,56.08
2023-04-03T05:14:21.357Z,57.80
2023-04-03T05:14:53.391Z,55.85
2023-04-03T05:15:25.773Z,55.90
2023-04-03T05:15:58.865Z,56.42
2023-04-03T05:16:31.061Z,56.28
2023-04-03T05:17:03.712Z,56.63
2023-04-03T05:17:40.226Z,57.58
2023-04-03T05:18:16.213Z,55.72
2023-04-03T05:18:48.257Z,56.53
2023-04-03T05:19:25.479Z,55.97
2023-04-03T05:19:57.470Z,56.15
2023-04-03T05:20:32.927Z,56.95
2023-04-03T05:21:06.621Z,56.90
2023-04-03T05:21:38.634Z,57.58
2023-04-03T05:22:16.619Z,56.05
2023-04-03T05:22:48.641Z,57.00
2023-04-03T05:23:20.629Z,56.72
2023-04-03T05:23:54.016Z,57.42
2023-04-03T05:24:27.140Z,57.35
2023-04-03T05:24:59.169Z,57.88
2023-04-03T05:25:32.254Z,58.22
2023-04-03T05:26:04.684Z,57.35
2023-04-03T05:26:37.017Z,57.78
2023-04-03T05:27:10.424Z,58.42
2023-04-03T05:27:45.432Z,56.97
2023-04-03T05:28:18.188Z,58.13
2023-04-03T05:28:52.279Z,57.85
2023-04-03T05:29:25.256Z,57.45
2023-04-03T05:29:57.300Z,57.90
2023-04-03T05:30:30.351Z,60.05
2023-04-03T05:31:02.354Z,59.03
2023-04-03T05:31:39.879Z,60.22
2023-04-03T05:32:15.017Z,57.13
2023-04-03T05:32:47.118Z,57.10
2023-04-03T05:33:27.249Z,58.22
2023-04-03T05:34:01.805Z,59.17
2023-04-03T05:34:36.520Z,60.13
2023-04-03T05:35:09.941Z,59.38
2023-04-03T05:35:42.560Z,59.10
2023-04-03T05:36:20.221Z,57.80
2023-04-03T05:36:56.206Z,60.03
2023-04-03T05:37:28.748Z,58.58
2023-04-03T05:38:02.648Z,59.40
2023-04-03T05:38:35.135Z,59.25
2023-04-03T05:39:07.213Z,59.38
2023-04-03T05:39:43.502Z,58.35
2023-04-03T05:40:18.512Z,58.05
2023-04-03T05:40:52.524Z,60.33
2023-04-03T05:41:25.929Z,58.17
2023-04-03T05:41:58.132Z,58.40
2023-04-03T05:42:31.627Z,58.55
2023-04-03T05:43:04.050Z,59.22
2023-04-03T05:43:40.072Z,58.60
2023-04-03T05:44:14.953Z,57.95
2023-04-03T05:44:51.065Z,58.40
2023-04-03T05:45:23.095Z,57.97
2023-04-03T05:45:56.241Z,58.25
2023-04-03T05:46:31.035Z,58.47
2023-04-03T05:47:07.576Z,58.47
2023-04-03T05:47:39.603Z,57.45
2023-04-03T05:48:13.554Z,59.10
2023-04-03T05:48:47.008Z,58.38
2023-04-03T05:49:22.763Z,56.72
2023-04-03T05:49:54.738Z,58.05
2023-04-03T05:50:27.774Z,58.20
2023-04-03T05:51:00.030Z,57.88
2023-04-03T05:51:36.560Z,58.00
2023-04-03T05:52:23.125Z,57.63
2023-04-03T05:52:59.156Z,57.58
2023-04-03T05:53:37.568Z,58.25
2023-04-03T05:54:14.723Z,59.28
2023-04-03T05:54:49.206Z,58.58
2023-04-03T05:55:26.504Z,58.97
2023-04-03T05:55:58.636Z,58.58
2023-04-03T05:56:32.407Z,57.78
2023-04-03T05:57:04.547Z,57.33
2023-04-03T05:57:37.605Z,57.60
2023-04-03T05:58:11.702Z,58.28
2023-04-03T05:58:45.224Z,57.95
2023-04-03T05:59:17.422Z,57.95
2023-04-03T05:59:49.503Z,57.55
2023-04-03T06:00:23.547Z,57.50
2023-04-03T06:01:06.569Z,57.63
2023-04-03T06:01:39.817Z,58.38
2023-04-03T06:02:12.488Z,58.28
2023-04-03T06:02:45.780Z,58.03
2023-04-03T06:03:23.851Z,57.38
2023-04-03T06:03:59.639Z,57.47
2023-04-03T06:04:32.119Z,58.42
2023-04-03T06:05:06.492Z,57.88
2023-04-03T06:05:38.787Z,58.22
2023-04-03T06:06:14.217Z,58.03
2023-04-03T06:06:52.432Z,57.72
2023-04-03T06:07:29.080Z,57.85
2023-04-03T06:08:01.418Z,57.10
2023-04-03T06:08:35.094Z,58.00
2023-04-03T06:09:07.614Z,57.03
2023-04-03T06:09:40.820Z,57.50
2023-04-03T06:10:13.369Z,57.25
2023-04-03T06:10:45.764Z,57.88
2023-04-03T06:11:18.750Z,57.30
2023-04-03T06:11:51.245Z,58.45
2023-04-03T06:12:24.737Z,57.70
2023-04-03T06:12:56.922Z,58.05
2023-04-03T06:13:30.452Z,58.33
2023-04-03T06:14:02.487Z,56.97
2023-04-03T06:14:36.130Z,57.67
2023-04-03T06:15:10.963Z,56.28
2023-04-03T06:15:43.990Z,56.97
2023-04-03T06:16:17.147Z,57.30
2023-04-03T06:16:49.313Z,57.67
2023-04-03T06:17:22.340Z,57.50
2023-04-03T06:17:54.448Z,57.17
2023-04-03T06:18:27.791Z,57.83
2023-04-03T06:18:59.798Z,57.22
2023-04-03T06:19:31.942Z,58.33
2023-04-03T06:20:05.543Z,57.55
2023-04-03T06:20:38.218Z,57.10
2023-04-03T06:21:10.702Z,57.60
2023-04-03T06:21:43.672Z,58.42
2023-04-03T06:22:17.321Z,58.55
2023-04-03T06:22:52.492Z,58.13
2023-04-03T06:23:24.552Z,58.30
2023-04-03T06:23:56.536Z,59.08
2023-04-03T06:24:29.502Z,57.25
2023-04-03T06:25:01.474Z,57.13
2023-04-03T06:25:34.654Z,57.17
2023-04-03T06:26:08.097Z,57.85
2023-04-03T06:26:40.056Z,57.40
2023-04-03T06:27:12.554Z,57.85
2023-04-03T06:27:45.758Z,57.83
2023-04-03T06:28:31.509Z,57.65
2023-04-03T06:29:06.696Z,57.75
2023-04-03T06:29:38.693Z,58.13
2023-04-03T06:30:12.123Z,57.15
2023-04-03T06:30:44.096Z,57.92
2023-04-03T06:31:16.694Z,55.47
2023-04-03T06:31:50.326Z,57.58
2023-04-03T06:32:22.317Z,58.42
2023-04-03T06:32:54.362Z,56.88
2023-04-03T06:33:27.371Z,57.05
2023-04-03T06:33:59.372Z,56.63
2023-04-03T06:34:32.403Z,56.83
2023-04-03T06:35:06.388Z,58.33
2023-04-03T06:35:39.523Z,57.95
2023-04-03T06:36:12.768Z,57.85
2023-04-03T06:36:46.159Z,56.38
2023-04-03T06:37:21.978Z,56.88
2023-04-03T06:37:55.000Z,57.08
2023-04-03T06:38:26.939Z,57.55
2023-04-03T06:38:58.913Z,56.97
2023-04-03T06:39:31.961Z,57.85
2023-04-03T06:40:04.422Z,56.83
2023-04-03T06:40:36.971Z,57.28
2023-04-03T06:41:10.326Z,57.10
2023-04-03T06:41:42.513Z,56.15
2023-04-03T06:42:15.786Z,56.92
2023-04-03T06:42:58.521Z,56.95
2023-04-03T06:44:05.337Z,57.45
2023-04-03T06:44:37.385Z,57.60
2023-04-03T06:45:12.383Z,58.13
2023-04-03T06:45:44.446Z,57.92
2023-04-03T06:46:16.978Z,56.38
2023-04-03T06:46:51.275Z,57.08
2023-04-03T06:47:23.338Z,57.05
2023-04-03T06:47:56.601Z,56.92
2023-04-03T06:48:28.688Z,58.13
2023-04-03T06:49:00.848Z,57.88
2023-04-03T06:49:33.883Z,57.47
2023-04-03T06:50:07.634Z,56.72
2023-04-03T06:50:40.875Z,57.10
2023-04-03T06:51:22.301Z,57.33
2023-04-03T06:51:55.422Z,57.92
2023-04-03T06:52:28.756Z,56.60
2023-04-03T06:53:02.071Z,57.67
2023-04-03T06:53:34.071Z,57.90
2023-04-03T06:54:07.048Z,57.08
2023-04-03T06:54:40.483Z,57.50
2023-04-03T06:55:12.828Z,57.85
2023-04-03T06:55:44.824Z,57.15
2023-04-03T06:56:18.190Z,57.30
2023-04-03T06:56:51.383Z,57.60
2023-04-03T06:57:23.479Z,58.42
2023-04-03T06:57:56.412Z,57.75
2023-04-03T06:58:29.608Z,58.08
2023-04-03T06:59:01.854Z,57.60
2023-04-03T06:59:35.098Z,57.88
2023-04-03T07:00:10.146Z,57.38
2023-04-03T07:00:43.148Z,57.75
2023-04-03T07:01:17.325Z,58.90
2023-04-03T07:01:50.351Z,57.75
2023-04-03T07:02:22.818Z,57.85
2023-04-03T07:02:54.999Z,57.58
2023-04-03T07:03:28.782Z,58.25
2023-04-03T07:04:01.206Z,57.60
2023-04-03T07:04:34.372Z,57.08
2023-04-03T07:05:07.387Z,57.55
2023-04-03T07:05:41.092Z,59.03
2023-04-03T07:06:15.100Z,58.97
2023-04-03T07:06:47.836Z,57.72
2023-04-03T07:07:20.811Z,58.05
2023-04-03T07:07:54.190Z,57.28
2023-04-03T07:08:27.249Z,58.17
2023-04-03T07:08:59.233Z,56.70
2023-04-03T07:09:32.193Z,57.70
2023-04-03T07:10:05.005Z,57.63
2023-04-03T07:10:39.686Z,57.42
2023-04-03T07:11:12.971Z,57.50
2023-04-03T07:11:46.057Z,57.70
2023-04-03T07:12:18.118Z,58.45
2023-04-03T07:12:51.065Z,58.47
2023-04-03T07:13:23.041Z,57.60
2023-04-03T07:13:55.109Z,58.15
2023-04-03T07:14:28.188Z,58.60
2023-04-03T07:15:00.302Z,57.67